Time;durP1;ratioP1;P1;durP2;ratioP2;P2;SDS_P1;SDS_P2;PMS_P1;PMS_P2;Temp;Humidity;BMP_temperature;BMP_pressure;BME280_temperature;BME280_humidity;BME280_pressure;Samples;Min_cycle;Max_cycle;Signal;HPM_P1;HPM_P2
2022/11/03 00:00:01;;;;;;;1999.90;999.90;;;12.20;99.90;;;;;;5014190;28;20018;-83
2022/11/03 00:02:27;;;;;;;1999.90;999.90;;;12.10;99.90;;;;;;5013086;28;20119;-83
2022/11/03 00:04:52;;;;;;;1999.90;999.90;;;12.10;99.90;;;;;;4996625;28;20026;-83
2022/11/03 00:07:21;;;;;;;1999.90;999.90;;;12.00;99.90;;;;;;5014242;28;20033;-83
2022/11/03 00:09:47;;;;;;;1999.90;999.90;;;12.00;99.90;;;;;;5013991;28;20036;-83
2022/11/03 00:12:13;;;;;;;1999.90;999.90;;;12.00;99.90;;;;;;5013673;28;20022;-83
2022/11/03 00:14:38;;;;;;;1999.90;999.90;;;11.90;99.90;;;;;;5014127;28;20420;-83
2022/11/03 00:17:04;;;;;;;1999.90;999.90;;;11.90;99.90;;;;;;5013967;28;20044;-83
2022/11/03 00:19:30;;;;;;;1999.90;999.90;;;11.90;99.90;;;;;;4996358;28;20116;-83
2022/11/03 00:21:58;;;;;;;1999.90;999.90;;;11.90;99.90;;;;;;5013453;28;20026;-83
2022/11/03 00:24:24;;;;;;;1999.90;999.90;;;11.80;99.90;;;;;;5013543;28;20088;-83
2022/11/03 00:26:49;;;;;;;1999.90;999.90;;;11.80;99.90;;;;;;4996276;28;20030;-83
2022/11/03 00:29:15;;;;;;;1999.90;999.90;;;11.80;99.90;;;;;;5014012;28;20034;-83
2022/11/03 00:31:43;;;;;;;1999.90;999.90;;;11.80;99.90;;;;;;5013590;28;20026;-83
2022/11/03 00:34:09;;;;;;;1999.90;999.90;;;11.70;99.90;;;;;;5013562;28;20036;-83
2022/11/03 00:36:37;;;;;;;1999.90;999.90;;;11.70;99.90;;;;;;5013271;28;20096;-83
2022/11/03 00:39:04;;;;;;;1999.90;999.90;;;11.70;99.90;;;;;;4995671;28;20478;-83
2022/11/03 00:41:30;;;;;;;1999.90;999.90;;;11.60;99.90;;;;;;4996000;28;20033;-83
2022/11/03 00:43:56;;;;;;;1999.90;999.90;;;11.60;99.90;;;;;;4995063;28;20026;-83
2022/11/03 00:46:23;;;;;;;1999.90;999.90;;;11.50;99.90;;;;;;5013306;28;20616;-83
2022/11/03 00:48:49;;;;;;;1999.90;999.90;;;11.50;99.90;;;;;;5013306;28;20025;-83
2022/11/03 00:51:21;;;;;;;1999.90;999.90;;;11.40;99.90;;;;;;5013380;28;20037;-82
2022/11/03 00:53:49;;;;;;;1999.90;999.90;;;11.40;99.90;;;;;;5013008;28;20420;-83
2022/11/03 00:56:17;;;;;;;1999.90;999.90;;;11.40;99.90;;;;;;4995564;28;20034;-83
2022/11/03 00:58:43;;;;;;;1999.90;999.90;;;11.40;99.90;;;;;;4995235;28;20029;-83
2022/11/03 01:01:14;;;;;;;1999.90;999.90;;;11.40;99.90;;;;;;5013260;28;20029;-83
2022/11/03 01:06:48;;;;;;;1999.90;999.90;;;11.40;99.90;;;;;;5013026;28;20026;-83
2022/11/03 01:06:50;;;;;;;1999.90;999.90;;;11.30;99.90;;;;;;5012711;28;20034;-83
2022/11/03 01:09:22;;;;;;;1999.90;999.90;;;11.30;99.90;;;;;;4995424;28;20030;-83
2022/11/03 01:11:58;;;;;;;1999.90;999.90;;;11.30;99.90;;;;;;5012806;28;20044;-83
2022/11/03 01:14:26;;;;;;;1999.90;999.90;;;11.30;99.90;;;;;;5012682;28;20065;-83
2022/11/03 01:16:51;;;;;;;1999.90;999.90;;;11.30;99.90;;;;;;4995430;28;20440;-83
2022/11/03 01:19:17;;;;;;;1999.90;999.90;;;11.30;99.90;;;;;;5012162;28;20058;-83
2022/11/03 01:21:43;;;;;;;1999.90;999.90;;;11.30;99.90;;;;;;5012228;28;20022;-83
2022/11/03 01:24:09;;;;;;;1999.90;999.90;;;11.30;99.90;;;;;;4994826;28;20057;-83
2022/11/03 01:26:34;;;;;;;1999.90;999.90;;;11.20;99.90;;;;;;5012719;28;20068;-83
2022/11/03 01:29:00;;;;;;;1999.90;999.90;;;11.20;99.90;;;;;;5012611;28;20037;-83
2022/11/03 01:31:26;;;;;;;1999.90;999.90;;;11.20;99.90;;;;;;5012951;28;20040;-83
2022/11/03 01:33:54;;;;;;;1999.90;999.90;;;11.10;99.90;;;;;;4994995;28;20375;-83
2022/11/03 01:36:20;;;;;;;1999.90;999.90;;;11.10;99.90;;;;;;4994615;28;20037;-82
2022/11/03 01:38:47;;;;;;;1999.90;999.90;;;11.10;99.90;;;;;;4995024;28;20095;-83
2022/11/03 01:41:20;;;;;;;1999.90;999.90;;;11.10;99.90;;;;;;5012298;28;20087;-83
2022/11/03 01:44:03;;;;;;;1999.90;999.90;;;11.10;99.90;;;;;;5011272;28;20117;-83
2022/11/03 01:46:29;;;;;;;1999.90;999.90;;;11.10;99.90;;;;;;5012484;28;20026;-83
2022/11/03 01:49:06;;;;;;;1999.90;999.90;;;11.10;99.90;;;;;;4995015;28;20095;-83
2022/11/03 01:51:35;;;;;;;1999.90;999.90;;;11.10;99.90;;;;;;4994785;28;20025;-83
2022/11/03 01:54:05;;;;;;;1999.90;999.90;;;11.20;99.90;;;;;;5012207;28;20061;-83
2022/11/03 01:56:35;;;;;;;1999.90;999.90;;;11.20;99.90;;;;;;5012353;28;20026;-83
2022/11/03 01:59:02;;;;;;;1999.90;999.90;;;11.20;99.90;;;;;;4999351;28;20022;-83
2022/11/03 02:01:29;;;;;;;1999.90;999.90;;;11.20;99.90;;;;;;5033212;28;20037;-83
2022/11/03 02:04:00;;;;;;;1999.90;999.90;;;11.30;99.90;;;;;;5012625;28;20405;-83
2022/11/03 02:06:28;;;;;;;1999.90;999.90;;;11.30;99.90;;;;;;5012135;28;20467;-83
2022/11/03 02:09:00;;;;;;;1999.90;999.90;;;11.30;99.90;;;;;;5012323;28;20370;-83
2022/11/03 02:14:13;;;;;;;1999.90;999.90;;;11.40;99.90;;;;;;5012382;28;20049;-83
2022/11/03 02:16:42;;;;;;;1999.90;999.90;;;11.40;99.90;;;;;;5012190;28;20018;-83
2022/11/03 02:19:20;;;;;;;1999.90;999.90;;;11.40;99.90;;;;;;5014440;28;20052;-83
2022/11/03 02:21:58;;;;;;;1999.90;999.90;;;11.40;99.90;;;;;;5014273;28;20014;-83
2022/11/03 02:25:01;;;;;;;1999.90;999.90;;;11.50;99.90;;;;;;4996934;28;20072;-83
2022/11/03 02:27:27;;;;;;;1999.90;999.90;;;11.50;99.90;;;;;;5016196;28;20026;-83
2022/11/03 02:29:53;;;;;;;1999.90;999.90;;;11.50;99.90;;;;;;4998203;28;20378;-83
2022/11/03 02:32:25;;;;;;;1999.90;999.90;;;11.50;99.90;;;;;;5016165;28;20072;-83
2022/11/03 02:35:04;;;;;;;1999.90;999.90;;;11.50;99.90;;;;;;4998231;28;20034;-83
2022/11/03 02:37:35;;;;;;;1999.90;999.90;;;11.50;99.90;;;;;;4997545;28;20100;-83
2022/11/03 02:40:06;;;;;;;1999.90;999.90;;;11.50;99.90;;;;;;4997915;28;20038;-83
2022/11/03 02:42:34;;;;;;;1999.90;999.90;;;11.50;99.90;;;;;;5015644;28;20073;-83
2022/11/03 02:45:04;;;;;;;1999.90;999.90;;;11.50;99.90;;;;;;5015268;28;20022;-83
2022/11/03 02:47:31;;;;;;;1999.90;999.90;;;11.50;99.90;;;;;;5015336;28;20477;-83
2022/11/03 02:49:57;;;;;;;1999.90;999.90;;;11.60;99.90;;;;;;5015572;28;20049;-83
2022/11/03 02:52:37;;;;;;;1999.90;999.90;;;11.60;99.90;;;;;;5015397;28;20026;-83
2022/11/03 02:55:45;;;;;;;1999.90;999.90;;;11.60;99.90;;;;;;4997756;28;20049;-83
2022/11/03 02:58:54;;;;;;;1999.90;999.90;;;11.60;99.90;;;;;;5025643;28;20037;-83
2022/11/03 03:01:46;;;;;;;1999.90;999.90;;;11.60;99.90;;;;;;4955010;29;20442;-83
2022/11/03 03:04:33;;;;;;;1999.90;999.90;;;11.70;99.90;;;;;;4954821;29;20078;-83
2022/11/03 03:07:12;;;;;;;1999.90;999.90;;;11.70;99.90;;;;;;4954803;29;20067;-83
2022/11/03 03:10:09;;;;;;;1999.90;999.90;;;11.60;99.90;;;;;;4938458;29;20093;-83
2022/11/03 03:12:38;;;;;;;1999.90;999.90;;;11.70;99.90;;;;;;4954373;29;20039;-83
2022/11/03 03:15:06;;;;;;;1999.90;999.90;;;11.70;99.90;;;;;;4955023;29;20074;-83
2022/11/03 03:17:45;;;;;;;1999.90;999.90;;;11.60;99.90;;;;;;4954705;29;20047;-83
2022/11/03 03:20:13;;;;;;;1999.90;999.90;;;11.70;99.90;;;;;;4954348;29;20110;-83
2022/11/03 03:22:50;;;;;;;1999.90;999.90;;;11.70;99.90;;;;;;4937812;29;20032;-83
2022/11/03 03:25:21;;;;;;;1999.90;999.90;;;11.70;99.90;;;;;;4954074;29;20043;-83
2022/11/03 03:27:51;;;;;;;1999.90;999.90;;;11.80;99.90;;;;;;4954546;29;20074;-83
2022/11/03 03:30:18;;;;;;;1999.90;999.90;;;11.80;99.90;;;;;;4954293;29;20042;-83
2022/11/03 03:32:46;;;;;;;1999.90;999.90;;;11.80;99.90;;;;;;5018939;28;20504;-83
2022/11/03 03:35:23;;;;;;;1999.90;999.90;;;11.80;99.90;;;;;;5034676;28;20377;-83
2022/11/03 03:37:53;;;;;;;1999.90;999.90;;;11.80;99.90;;;;;;5034102;28;20025;-83
2022/11/03 03:40:29;;;;;;;1999.90;999.90;;;11.90;99.90;;;;;;5016206;28;20069;-83
2022/11/03 03:42:56;;;;;;;1999.90;999.90;;;11.90;99.90;;;;;;5034459;28;20013;-83
2022/11/03 03:45:23;;;;;;;1999.90;999.90;;;11.90;99.90;;;;;;5034238;28;20036;-83
2022/11/03 03:47:49;;;;;;;1999.90;999.90;;;11.90;99.90;;;;;;5016140;28;20029;-83
2022/11/03 03:50:15;;;;;;;1999.90;999.90;;;11.90;99.90;;;;;;5034256;28;20033;-83
2022/11/03 03:52:41;;;;;;;1999.90;999.90;;;12.00;99.90;;;;;;5033995;28;20144;-83
2022/11/03 03:55:14;;;;;;;1999.90;999.90;;;12.00;99.90;;;;;;5034060;28;20132;-83
2022/11/03 03:57:40;;;;;;;1999.90;999.90;;;12.00;99.90;;;;;;5033596;28;20021;-83
2022/11/03 04:00:07;;;;;;;1999.90;999.90;;;12.00;99.90;;;;;;5016208;28;20040;-83
2022/11/03 04:02:33;;;;;;;1999.90;999.90;;;12.10;99.90;;;;;;5033927;28;20554;-83
2022/11/03 04:04:59;;;;;;;1999.90;999.90;;;12.10;99.90;;;;;;5016135;28;20029;-83
2022/11/03 04:10:08;;;;;;;1999.90;999.90;;;12.10;99.90;;;;;;5033667;28;20044;-83
2022/11/03 04:23:31;;;;;;;1999.90;999.90;;;12.20;99.90;;;;;;5033620;28;20032;-83
2022/11/03 04:25:57;;;;;;;1999.90;999.90;;;12.20;99.90;;;;;;5015706;28;20041;-83
2022/11/03 04:28:24;;;;;;;1999.90;999.90;;;12.30;99.90;;;;;;5033550;28;20526;-83
2022/11/03 04:30:50;;;;;;;1999.90;999.90;;;12.20;99.90;;;;;;5033671;28;20025;-83
2022/11/03 04:33:19;;;;;;;1999.90;999.90;;;12.20;99.90;;;;;;5033732;28;20036;-83
2022/11/03 04:35:46;;;;;;;1999.90;999.90;;;12.30;99.90;;;;;;5033429;28;20040;-83
2022/11/03 04:38:12;;;;;;;1999.90;999.90;;;12.20;99.90;;;;;;5033046;28;20037;-83
2022/11/03 04:40:40;;;;;;;1999.90;999.90;;;12.20;99.90;;;;;;5033729;28;20030;-83
2022/11/03 04:43:14;;;;;;;1999.90;999.90;;;12.20;99.90;;;;;;5033387;28;20450;-83
2022/11/03 04:45:41;;;;;;;1999.90;999.90;;;12.20;99.90;;;;;;5033182;28;20033;-83
2022/11/03 04:48:21;;;;;;;1999.90;999.90;;;12.20;99.90;;;;;;5031888;28;20396;-83
2022/11/03 04:50:48;;;;;;;1999.90;999.90;;;12.20;99.90;;;;;;5015762;28;20026;-83
2022/11/03 04:53:18;;;;;;;1999.90;999.90;;;12.20;99.90;;;;;;5015097;28;20107;-83
2022/11/03 04:55:47;;;;;;;1999.90;999.90;;;12.20;99.90;;;;;;5032882;28;20021;-83
2022/11/03 04:58:20;;;;;;;1999.90;999.90;;;12.30;99.90;;;;;;5015006;28;20025;-83
2022/11/03 05:00:51;;;;;;;1999.90;999.90;;;12.30;99.90;;;;;;5032787;28;20025;-83
2022/11/03 05:03:28;;;;;;;1999.90;999.90;;;12.30;99.90;;;;;;5033030;28;20396;-83
2022/11/03 05:05:54;;;;;;;1999.90;999.90;;;12.30;99.90;;;;;;5032940;28;20060;-83
2022/11/03 05:08:21;;;;;;;1999.90;999.90;;;12.30;99.90;;;;;;5032489;28;20100;-83
2022/11/03 05:10:48;;;;;;;1999.90;999.90;;;12.30;99.90;;;;;;5032775;28;20488;-83
2022/11/03 05:13:22;;;;;;;1999.90;999.90;;;12.30;99.90;;;;;;5032557;28;20100;-83
2022/11/03 05:15:58;;;;;;;1999.90;999.90;;;12.30;99.90;;;;;;5032510;28;20049;-83
2022/11/03 05:18:26;;;;;;;1999.90;999.90;;;12.30;99.90;;;;;;5032586;28;20096;-83
2022/11/03 05:20:55;;;;;;;1999.90;999.90;;;12.30;99.90;;;;;;5032548;28;20392;-83
2022/11/03 05:23:22;;;;;;;1999.90;999.90;;;12.30;99.90;;;;;;5014616;28;20030;-85
2022/11/03 05:25:51;;;;;;;1999.90;999.90;;;12.20;99.90;;;;;;5014512;28;20037;-85
2022/11/03 05:28:26;;;;;;;1999.90;999.90;;;12.20;99.90;;;;;;5032310;28;20030;-85
2022/11/03 05:30:53;;;;;;;1999.90;999.90;;;12.20;99.90;;;;;;5032591;28;20032;-85
2022/11/03 05:33:24;;;;;;;1999.90;999.90;;;12.20;99.90;;;;;;5014804;28;20021;-85
2022/11/03 05:35:50;;;;;;;1999.90;999.90;;;12.20;99.90;;;;;;5014535;28;20117;-85
2022/11/03 05:38:19;;;;;;;1999.90;999.90;;;12.20;99.90;;;;;;5031981;28;20120;-85
2022/11/03 05:40:45;;;;;;;1999.90;999.90;;;12.30;99.90;;;;;;5032223;28;20104;-85
2022/11/03 05:43:13;;;;;;;1999.90;999.90;;;12.30;99.90;;;;;;5032735;28;20521;-85
2022/11/03 05:45:39;;;;;;;1999.90;999.90;;;12.30;99.90;;;;;;5032284;28;20076;-85
2022/11/03 05:48:32;;;;;;;1999.90;999.90;;;12.30;99.90;;;;;;5031412;28;20056;-85
2022/11/03 05:51:00;;;;;;;1999.90;999.90;;;12.30;99.90;;;;;;5029514;28;20488;-85
2022/11/03 05:53:31;;;;;;;1999.90;999.90;;;12.30;99.90;;;;;;5032023;28;20553;-85
2022/11/03 05:56:00;;;;;;;1999.90;999.90;;;12.30;99.90;;;;;;5032149;28;20029;-85
2022/11/03 05:58:28;;;;;;;1999.90;999.90;;;12.40;99.90;;;;;;5014271;28;20116;-88
2022/11/03 06:00:56;;;;;;;1999.90;999.90;;;12.40;99.90;;;;;;5035201;28;20053;-86
2022/11/03 06:03:28;;;;;;;1999.90;999.90;;;12.40;99.90;;;;;;5018525;28;20116;-86
2022/11/03 06:05:55;;;;;;;1999.90;999.90;;;12.40;99.90;;;;;;5036085;28;20025;-86
2022/11/03 06:08:26;;;;;;;1999.90;999.90;;;12.50;99.90;;;;;;5035897;28;20374;-85
2022/11/03 06:10:57;;;;;;;1999.90;999.90;;;12.50;99.90;;;;;;5036144;28;20036;-85
2022/11/03 06:13:35;;;;;;;1999.90;999.90;;;12.60;99.90;;;;;;5036133;28;20029;-85
2022/11/03 06:16:21;;;;;;;1999.90;999.90;;;12.60;99.90;;;;;;5035763;28;20029;-86
2022/11/03 06:18:47;;;;;;;1999.90;999.90;;;12.60;99.90;;;;;;5036020;28;20025;-85
2022/11/03 06:21:18;;;;;;;1999.90;999.90;;;12.60;99.90;;;;;;5017113;28;20113;-85
2022/11/03 06:23:44;;;;;;;1999.90;999.90;;;12.60;99.90;;;;;;5035553;28;20439;-86
2022/11/03 06:26:18;;;;;;;1999.90;999.90;;;12.70;99.90;;;;;;5017840;28;20029;-87
2022/11/03 06:28:45;;;;;;;1999.90;999.90;;;12.70;99.90;;;;;;5018598;28;20036;-87
2022/11/03 06:31:23;;;;;;;1999.90;999.90;;;12.80;99.90;;;;;;5036003;28;20034;-86
2022/11/03 06:33:50;;;;;;;1999.90;999.90;;;12.70;99.90;;;;;;5035642;28;20036;-85
2022/11/03 06:36:19;;;;;;;1999.90;999.90;;;12.80;99.90;;;;;;5022712;28;20116;-85
2022/11/03 06:38:53;;;;;;;1999.90;999.90;;;12.80;99.90;;;;;;5013680;28;20052;-84
2022/11/03 06:41:31;;;;;;;1999.90;999.90;;;12.90;99.90;;;;;;5015154;28;20068;-85
2022/11/03 06:44:00;;;;;;;1999.90;999.90;;;13.00;99.90;;;;;;5015305;28;20041;-85
2022/11/03 06:46:26;;;;;;;1999.90;999.90;;;12.90;99.90;;;;;;5014325;28;20477;-83
2022/11/03 06:48:54;;;;;;;1999.90;999.90;;;13.00;99.90;;;;;;5014028;28;20026;-83
2022/11/03 06:51:21;;;;;;;1999.90;999.90;;;13.10;99.90;;;;;;5015247;28;20022;-83
2022/11/03 06:53:49;;;;;;;1999.90;999.90;;;13.10;99.90;;;;;;4997691;28;20089;-83
2022/11/03 06:56:17;;;;;;;1999.90;999.90;;;13.10;99.90;;;;;;5015135;28;20038;-83
2022/11/03 06:58:47;;;;;;;1999.90;999.90;;;13.10;99.90;;;;;;5031055;28;20060;-82
2022/11/03 07:01:21;;;;;;;1999.90;999.90;;;13.20;99.90;;;;;;5034159;28;20021;-82
2022/11/03 07:03:56;;;;;;;1999.90;999.90;;;13.20;99.90;;;;;;5022074;28;20105;-81
2022/11/03 07:06:35;;;;;;;1999.90;999.90;;;13.20;99.90;;;;;;5014843;28;20054;-81
2022/11/03 07:09:03;;;;;;;1999.90;999.90;;;13.10;99.90;;;;;;5013882;28;20105;-81
2022/11/03 07:11:33;;;;;;;1999.90;999.90;;;13.10;99.90;;;;;;5013827;28;20030;-81
2022/11/03 07:14:11;;;;;;;1999.90;999.90;;;13.10;99.90;;;;;;5014660;28;20441;-83
2022/11/03 07:16:45;;;;;;;1999.90;999.90;;;13.10;99.90;;;;;;5013591;28;20030;-83
2022/11/03 07:19:24;;;;;;;1999.90;999.90;;;13.00;99.90;;;;;;5013238;28;20022;-83
2022/11/03 07:21:53;;;;;;;1999.90;999.90;;;13.00;99.90;;;;;;5014228;28;20030;-83
2022/11/03 07:24:21;;;;;;;1999.90;999.90;;;13.00;99.90;;;;;;5005854;28;20363;-83
2022/11/03 07:26:47;;;;;;;1999.90;999.90;;;13.10;99.90;;;;;;5011970;28;20546;-83
2022/11/03 07:29:20;;;;;;;1999.90;999.90;;;13.20;99.90;;;;;;5013867;28;20122;-83
2022/11/03 07:31:47;;;;;;;1999.90;999.90;;;13.10;99.90;;;;;;5013684;28;20053;-83
2022/11/03 07:34:21;;;;;;;1999.90;999.90;;;13.10;99.90;;;;;;5006992;28;20034;-83
2022/11/03 07:36:47;;;;;;;1999.90;999.90;;;13.20;99.90;;;;;;5012600;28;20116;-82
2022/11/03 07:39:18;;;;;;;1999.90;999.90;;;13.10;99.90;;;;;;5017918;28;20017;-83
2022/11/03 07:41:44;;;;;;;1999.90;999.90;;;13.00;99.90;;;;;;5023901;28;20026;-83
2022/11/03 07:44:19;;;;;;;1999.90;999.90;;;12.90;99.90;;;;;;5013876;28;20038;-82
2022/11/03 07:46:45;;;;;;;1999.90;999.90;;;13.00;99.90;;;;;;5019602;28;20037;-82
2022/11/03 07:49:25;;;;;;;1999.90;999.90;;;13.20;99.90;;;;;;5002990;28;20033;-83
2022/11/03 07:51:52;;;;;;;1999.90;999.90;;;13.30;99.90;;;;;;4995402;28;20370;-83
2022/11/03 07:54:24;;;;;;;1999.90;999.90;;;13.40;99.90;;;;;;5011429;28;20118;-79
2022/11/03 07:57:02;;;;;;;1999.90;999.90;;;13.40;99.90;;;;;;5008623;28;20088;-79
2022/11/03 07:59:36;;;;;;;1999.90;999.90;;;13.50;99.90;;;;;;5001143;28;20384;-79
2022/11/03 08:02:23;;;;;;;1999.90;999.90;;;13.50;99.90;;;;;;5000400;28;20026;-79
2022/11/03 08:04:49;;;;;;;1999.90;999.90;;;13.50;99.90;;;;;;5022564;28;20113;-80
2022/11/03 08:07:14;;;;;;;1999.90;999.90;;;13.60;99.90;;;;;;5012677;28;20418;-79
2022/11/03 08:09:40;;;;;;;1999.90;999.90;;;13.60;99.90;;;;;;4988639;28;20022;-82
2022/11/03 08:12:06;;;;;;;1999.90;999.90;;;13.60;99.90;;;;;;5002732;28;20393;-82
2022/11/03 08:14:31;;;;;;;1999.90;999.90;;;13.70;99.90;;;;;;5017759;28;20025;-81
2022/11/03 08:16:57;;;;;;;1999.90;999.90;;;13.70;99.90;;;;;;5016299;28;20036;-81
2022/11/03 08:19:22;;;;;;;1999.90;999.90;;;13.80;99.90;;;;;;5015048;28;20112;-82
2022/11/03 08:21:48;;;;;;;1999.90;999.90;;;13.80;99.90;;;;;;4996872;28;20517;-82
2022/11/03 08:24:14;;;;;;;1999.90;999.90;;;13.90;99.90;;;;;;5017408;28;20033;-83
2022/11/03 08:26:39;;;;;;;1999.90;999.90;;;14.00;99.90;;;;;;4997770;28;20038;-82
2022/11/03 08:29:05;;;;;;;1999.90;999.90;;;14.10;99.90;;;;;;5010880;28;20030;-82
2022/11/03 08:31:30;;;;;;;1999.90;999.90;;;14.20;99.90;;;;;;5004219;28;20033;-81
2022/11/03 08:33:56;;;;;;;1999.90;999.90;;;14.20;99.90;;;;;;5012229;28;20073;-81
2022/11/03 08:36:22;;;;;;;1999.90;999.90;;;14.20;99.90;;;;;;5012889;28;20033;-78
2022/11/03 08:38:47;;;;;;;1999.90;999.90;;;14.20;99.90;;;;;;5011560;28;20029;-80
2022/11/03 08:41:13;;;;;;;1999.90;999.90;;;14.20;99.90;;;;;;5011215;28;21365;-79
2022/11/03 08:43:39;;;;;;;1999.90;999.90;;;14.20;99.90;;;;;;5015397;28;20030;-81
2022/11/03 08:46:04;;;;;;;1999.90;999.90;;;14.20;99.90;;;;;;5012600;28;20101;-81
2022/11/03 08:48:30;;;;;;;1999.90;999.90;;;14.30;99.90;;;;;;5011051;28;20037;-81
2022/11/03 08:50:56;;;;;;;1999.90;999.90;;;14.40;99.90;;;;;;5008624;28;20049;-81
2022/11/03 08:53:25;;;;;;;1999.90;999.90;;;14.60;99.90;;;;;;4992168;28;20050;-80
2022/11/03 08:55:54;;;;;;;1999.90;999.90;;;14.80;99.90;;;;;;5009823;28;20495;-80
2022/11/03 08:58:20;;;;;;;1999.90;999.90;;;14.90;99.90;;;;;;4993417;28;20029;-78
2022/11/03 09:00:47;;;;;;;1999.90;999.90;;;14.90;99.90;;;;;;5009832;28;20034;-80
2022/11/03 09:03:12;;;;;;;1999.90;999.90;;;15.00;99.90;;;;;;5012450;28;20028;-81
2022/11/03 09:05:38;;;;;;;1999.90;999.90;;;15.00;99.90;;;;;;5017104;28;20401;-80
2022/11/03 09:08:04;;;;;;;1999.90;999.90;;;15.00;99.90;;;;;;5016808;28;20021;-81
2022/11/03 09:10:30;;;;;;;1999.90;999.90;;;15.10;99.90;;;;;;5009012;28;20034;-80
2022/11/03 09:12:55;;;;;;;1999.90;999.90;;;15.10;99.90;;;;;;5011243;28;20052;-79
2022/11/03 09:15:21;;;;;;;1999.90;999.90;;;15.00;99.90;;;;;;4990912;28;20034;-81
2022/11/03 09:17:47;;;;;;;1999.90;999.90;;;14.90;99.90;;;;;;5011486;28;20505;-80
2022/11/03 09:20:12;;;;;;;1999.90;999.90;;;14.90;99.90;;;;;;5019256;28;20556;-81
2022/11/03 09:22:38;;;;;;;1999.90;999.90;;;14.90;99.90;;;;;;5009904;28;20022;-81
2022/11/03 09:25:04;;;;;;;1999.90;999.90;;;14.90;99.90;;;;;;5009738;28;20104;-82
2022/11/03 09:27:30;;;;;;;1999.90;999.90;;;14.90;99.90;;;;;;5009243;28;20036;-81
2022/11/03 09:29:56;;;;;;;1999.90;999.90;;;15.00;99.90;;;;;;5010556;28;20353;-81
2022/11/03 09:32:22;;;;;;;1999.90;999.90;;;15.00;99.90;;;;;;5009738;28;20030;-81
2022/11/03 09:34:47;;;;;;;1999.90;999.90;;;15.00;99.90;;;;;;5009625;28;20038;-81
2022/11/03 09:37:13;;;;;;;1999.90;999.90;;;15.00;99.90;;;;;;5011883;28;20124;-82
2022/11/03 09:39:39;;;;;;;1999.90;999.90;;;15.10;99.90;;;;;;5007216;28;20076;-81
2022/11/03 09:42:05;;;;;;;1999.90;999.90;;;15.10;99.90;;;;;;5008416;28;20038;-80
2022/11/03 09:44:35;;;;;;;1999.90;999.90;;;15.20;99.90;;;;;;5008578;28;20038;-81
2022/11/03 09:47:02;;;;;;;1999.90;999.90;;;15.40;99.90;;;;;;5013226;28;20028;-82
2022/11/03 09:49:31;;;;;;;1999.90;999.90;;;15.50;99.90;;;;;;5015345;28;20026;-80
2022/11/03 09:51:57;;;;;;;1999.90;999.90;;;15.60;99.90;;;;;;5015421;28;20087;-79
2022/11/03 09:54:23;;;;;;;1999.90;999.90;;;15.70;99.90;;;;;;5009628;28;20153;-80
2022/11/03 09:56:49;;;;;;;1999.90;999.90;;;15.90;99.90;;;;;;5009865;28;20034;-79
2022/11/03 09:59:22;;;;;;;1999.90;999.90;;;16.00;99.90;;;;;;5010237;28;20486;-80
2022/11/03 10:01:52;;;;;;;1999.90;999.90;;;16.10;99.90;;;;;;5002661;28;20025;-80
2022/11/03 10:04:25;;;;;;;1999.90;999.90;;;16.10;99.90;;;;;;5009968;28;20034;-82
2022/11/03 10:06:51;;;;;;;1999.90;999.90;;;16.10;99.90;;;;;;5010686;28;20026;-81
2022/11/03 10:09:19;;;;;;;1999.90;999.90;;;16.30;99.90;;;;;;4991808;28;20464;-83
2022/11/03 10:11:46;;;;;;;1999.90;999.90;;;16.20;99.90;;;;;;5011125;28;20026;-82
2022/11/03 10:14:14;;;;;;;1999.90;999.90;;;16.40;99.90;;;;;;5018560;28;20396;-86
2022/11/03 10:16:42;;;;;;;1999.90;999.90;;;16.50;99.90;;;;;;5008050;28;20030;-83
2022/11/03 10:19:10;;;;;;;1999.90;999.90;;;16.50;99.90;;;;;;5002767;28;20034;-81
2022/11/03 10:21:37;;;;;;;1999.90;999.90;;;16.30;99.90;;;;;;5009765;28;20028;-88
2022/11/03 10:24:03;;;;;;;1999.90;999.90;;;16.10;99.90;;;;;;5009813;28;20125;-82
2022/11/03 10:26:41;;;;;;;1999.90;999.90;;;15.90;99.90;;;;;;5008488;28;20030;-81
2022/11/03 10:29:08;;;;;;;1999.90;999.90;;;15.90;99.90;;;;;;5009600;28;20504;-83
2022/11/03 10:31:39;;;;;;;1999.90;999.90;;;15.70;99.90;;;;;;5011579;28;20112;-84
2022/11/03 10:34:22;;;;;;;1999.90;999.90;;;15.50;99.90;;;;;;4995882;28;20440;-82
2022/11/03 10:36:48;;;;;;;;;;;15.00;99.90;;;;;;5010943;28;20038;-79
2022/11/03 10:39:29;;;;;;;1999.90;999.90;;;14.50;99.90;;;;;;5017515;28;19913;-80
2022/11/03 10:41:58;;;;;;;1999.90;999.90;;;14.50;99.90;;;;;;5010263;28;20034;-82
2022/11/03 10:44:28;;;;;;;1999.90;999.90;;;14.50;99.90;;;;;;5008969;28;20041;-79
2022/11/03 10:47:35;;;;;;;1999.90;999.90;;;14.50;99.90;;;;;;5009748;28;20084;-81
2022/11/03 10:50:17;;;;;;;1999.90;999.90;;;14.60;99.90;;;;;;5014383;28;20535;-82
2022/11/03 10:52:42;;;;;;;1999.90;999.90;;;14.60;99.90;;;;;;4994695;28;20034;-82
2022/11/03 10:55:08;;;;;;;1999.90;999.90;;;13.50;99.90;;;;;;5012414;28;20041;-80
2022/11/03 10:57:34;;;;;;;1999.90;999.90;;;13.00;99.90;;;;;;5012747;28;20033;-81
2022/11/03 11:00:00;;;;;;;1999.90;999.90;;;12.90;99.90;;;;;;5013929;28;20445;-82
2022/11/03 11:02:30;;;;;;;1999.90;999.90;;;13.00;99.90;;;;;;5001156;28;20021;-82
2022/11/03 11:05:01;;;;;;;1999.90;999.90;;;12.90;99.90;;;;;;5012955;28;20120;-83
2022/11/03 11:07:40;;;;;;;1999.90;999.90;;;12.90;99.90;;;;;;5011771;28;20022;-81
2022/11/03 11:10:18;;;;;;;1999.90;999.90;;;13.00;99.90;;;;;;5006457;28;20058;-82
2022/11/03 11:13:03;;;;;;;1999.90;999.90;;;13.00;99.90;;;;;;5017407;28;20029;-82
2022/11/03 11:15:40;;;;;;;1999.90;999.90;;;12.90;99.90;;;;;;5002224;28;20444;-83
2022/11/03 11:18:06;;;;;;;1999.90;999.90;;;12.90;99.90;;;;;;5018595;28;20026;-82
2022/11/03 11:20:41;;;;;;;1999.90;999.90;;;12.90;99.90;;;;;;5001347;28;20493;-82
2022/11/03 11:23:40;;;;;;;1999.90;999.90;;;12.90;99.90;;;;;;5017046;28;20034;-82
2022/11/03 11:26:08;;;;;;;1999.90;999.90;;;13.00;99.90;;;;;;5007585;28;20037;-84
2022/11/03 11:29:05;;;;;;;1999.90;999.90;;;13.00;99.90;;;;;;5016235;28;20108;-84
2022/11/03 11:31:32;;;;;;;1999.90;999.90;;;13.10;99.90;;;;;;5016648;28;20026;-83
2022/11/03 11:34:15;;;;;;;1999.90;999.90;;;13.10;99.90;;;;;;5001816;28;20125;-81
2022/11/03 11:37:04;;;;;;;1999.90;999.90;;;13.20;99.90;;;;;;4994729;28;20933;-82
2022/11/03 11:39:30;;;;;;;1999.90;999.90;;;13.30;99.90;;;;;;4982368;28;20034;-80
2022/11/03 11:42:16;;;;;;;1999.90;999.90;;;13.30;99.90;;;;;;5012784;28;20528;-81
2022/11/03 11:44:42;;;;;;;1999.90;999.90;;;13.30;99.90;;;;;;5005254;28;20029;-82
2022/11/03 11:47:25;;;;;;;1999.90;999.90;;;13.40;99.90;;;;;;5019782;28;20038;-78
2022/11/03 11:50:09;;;;;;;1999.90;999.90;;;13.30;99.90;;;;;;5001794;28;20025;-82
2022/11/03 11:52:43;;;;;;;1999.90;999.90;;;13.30;99.90;;;;;;5014854;28;20037;-84
2022/11/03 11:55:24;;;;;;;1999.90;999.90;;;13.30;99.90;;;;;;5015551;28;20053;-84
2022/11/03 11:57:50;;;;;;;1999.90;999.90;;;13.30;99.90;;;;;;5000411;28;20038;-85
2022/11/03 12:00:23;;;;;;;1999.90;999.90;;;13.20;99.90;;;;;;4998105;28;20095;-85
2022/11/03 12:02:51;;;;;;;1999.90;999.90;;;13.20;99.90;;;;;;5014047;28;20033;-83
2022/11/03 12:05:37;;;;;;;1999.90;999.90;;;13.20;99.90;;;;;;5011925;28;20068;-84
2022/11/03 12:08:20;;;;;;;1999.90;999.90;;;13.10;99.90;;;;;;5008291;28;20517;-83
2022/11/03 12:10:53;;;;;;;1999.90;999.90;;;13.20;99.90;;;;;;5012202;28;20034;-84
2022/11/03 12:13:42;;;;;;;1999.90;999.90;;;13.10;99.90;;;;;;5007792;28;20038;-83
2022/11/03 12:16:08;;;;;;;1999.90;999.90;;;13.00;99.90;;;;;;4992379;28;20069;-83
2022/11/03 12:18:40;;;;;;;1999.90;999.90;;;13.00;99.90;;;;;;4995569;28;20166;-84
2022/11/03 12:21:08;;;;;;;1999.90;999.90;;;13.00;99.90;;;;;;5011555;28;20052;-77
2022/11/03 12:23:41;;;;;;;1999.90;999.90;;;13.00;99.90;;;;;;5009727;28;20030;-84
2022/11/03 12:26:36;;;;;;;1999.90;999.90;;;12.90;99.90;;;;;;4983040;28;20040;-81
2022/11/03 12:29:04;;;;;;;1999.90;999.90;;;13.00;99.90;;;;;;5008744;28;20092;-81
2022/11/03 12:31:30;;;;;;;1999.90;999.90;;;13.00;99.90;;;;;;5004084;28;20099;-81